Time;durP1;ratioP1;P1;durP2;ratioP2;P2;SDS_P1;SDS_P2;PMS_P1;PMS_P2;Temp;Humidity;BMP_temperature;BMP_pressure;BME280_temperature;BME280_humidity;BME280_pressure;Samples;Min_cycle;Max_cycle;Signal;HPM_P1;HPM_P2
2022/08/27 00:00:36;;;;;;;8.05;4.38;;;18.80;99.90;;;;;;5091038;28;20036;-33
2022/08/27 00:03:02;;;;;;;7.63;4.50;;;18.80;99.90;;;;;;5061111;28;20481;-31
2022/08/27 00:05:27;;;;;;;7.82;3.97;;;18.90;99.90;;;;;;5089961;28;20047;-33
2022/08/27 00:07:53;;;;;;;9.60;4.60;;;18.90;99.90;;;;;;5088681;28;20042;-32
2022/08/27 00:10:22;;;;;;;7.00;4.60;;;19.00;99.90;;;;;;5087390;28;20092;-32
2022/08/27 00:12:47;;;;;;;6.50;4.35;;;19.00;99.90;;;;;;5082399;28;20031;-33
2022/08/27 00:15:14;;;;;;;8.13;4.82;;;19.00;99.90;;;;;;5083740;28;20078;-31
2022/08/27 00:17:41;;;;;;;6.38;4.90;;;19.00;99.90;;;;;;5087649;28;20028;-32
2022/08/27 00:20:07;;;;;;;7.35;4.32;;;19.00;99.90;;;;;;5087310;28;20465;-32
2022/08/27 00:22:33;;;;;;;7.97;4.30;;;19.10;99.90;;;;;;5086475;28;20020;-32
2022/08/27 00:24:59;;;;;;;6.60;4.28;;;19.10;99.90;;;;;;5089380;28;20030;-32
2022/08/27 00:27:25;;;;;;;9.68;4.50;;;19.10;99.90;;;;;;5089250;28;20035;-35
2022/08/27 00:29:50;;;;;;;7.38;4.57;;;19.10;99.90;;;;;;5088089;28;20091;-31
2022/08/27 00:32:16;;;;;;;6.22;4.60;;;19.10;99.90;;;;;;5085556;28;20048;-31
2022/08/27 00:34:42;;;;;;;7.82;4.93;;;19.10;99.90;;;;;;5082625;28;20064;-32
2022/08/27 00:37:07;;;;;;;7.97;5.00;;;19.10;99.90;;;;;;5089418;28;20035;-31
2022/08/27 00:39:35;;;;;;;7.53;4.43;;;19.10;99.90;;;;;;5091096;28;20054;-37
2022/08/27 00:42:02;;;;;;;8.18;5.22;;;19.10;99.90;;;;;;5086400;28;20028;-31
2022/08/27 00:44:28;;;;;;;7.00;4.50;;;19.10;99.90;;;;;;5083289;28;20429;-33
2022/08/27 00:46:59;;;;;;;7.78;4.60;;;19.00;99.90;;;;;;5086825;28;20062;-32
2022/08/27 00:49:41;;;;;;;6.55;4.70;;;18.90;99.90;;;;;;5083680;28;20358;-32
2022/08/27 00:52:27;;;;;;;7.07;4.85;;;18.80;99.90;;;;;;5064556;28;20123;-32
2022/08/27 00:54:59;;;;;;;9.68;4.68;;;18.80;99.90;;;;;;5067352;28;20116;-31
2022/08/27 00:57:26;;;;;;;7.18;4.70;;;18.80;99.90;;;;;;5088625;28;20023;-33
2022/08/27 00:59:52;;;;;;;7.85;4.45;;;18.90;99.90;;;;;;5085563;28;20072;-31
2022/08/27 01:02:18;;;;;;;7.57;4.57;;;18.90;99.90;;;;;;5092885;28;20068;-30
2022/08/27 01:05:09;;;;;;;6.13;4.95;;;18.90;99.90;;;;;;5103037;28;20032;-34
2022/08/27 01:07:39;;;;;;;7.20;4.50;;;19.00;99.90;;;;;;5095785;28;20389;-32
2022/08/27 01:10:09;;;;;;;6.30;4.45;;;19.00;99.90;;;;;;5097197;28;20123;-31
2022/08/27 01:12:36;;;;;;;6.70;4.25;;;19.00;99.90;;;;;;5103728;28;20020;-32
2022/08/27 01:15:05;;;;;;;6.10;4.40;;;19.00;99.90;;;;;;5100588;28;20535;-34
2022/08/27 01:17:31;;;;;;;7.68;4.70;;;19.00;99.90;;;;;;5092261;28;20024;-31
2022/08/27 01:20:02;;;;;;;6.32;4.80;;;19.00;99.90;;;;;;5098026;28;20036;-31
2022/08/27 01:22:52;;;;;;;8.90;4.75;;;19.00;99.90;;;;;;5097573;28;20056;-34
2022/08/27 01:25:20;;;;;;;8.18;4.95;;;19.00;99.90;;;;;;5096396;28;20028;-31
2022/08/27 01:27:46;;;;;;;;;;;19.00;99.90;;;;;;5098416;28;20024;-34
2022/08/27 01:30:15;;;;;;;7.82;4.70;;;19.00;99.90;;;;;;5099404;28;20002;-31
2022/08/27 01:32:42;;;;;;;7.90;4.82;;;19.00;99.90;;;;;;5098840;28;20043;-31
2022/08/27 01:35:11;;;;;;;8.15;5.40;;;18.90;99.90;;;;;;5090449;28;20035;-34
2022/08/27 01:37:37;;;;;;;7.38;4.90;;;18.80;99.90;;;;;;5102614;28;20047;-32
2022/08/27 01:40:03;;;;;;;5.47;4.18;;;18.80;99.90;;;;;;5097407;28;20028;-31
2022/08/27 01:42:32;;;;;;;10.88;5.25;;;18.80;99.90;;;;;;5101166;28;20107;-32
2022/08/27 01:45:08;;;;;;;8.77;5.10;;;18.80;99.90;;;;;;5097890;28;20100;-32
2022/08/27 01:47:35;;;;;;;7.47;4.88;;;18.80;99.90;;;;;;5099691;28;20088;-32
2022/08/27 01:50:06;;;;;;;10.13;5.38;;;18.90;99.90;;;;;;5090721;28;20032;-31
2022/08/27 01:52:32;;;;;;;8.43;5.68;;;18.90;99.90;;;;;;5099003;28;20107;-32
2022/08/27 01:54:58;;;;;;;9.50;5.20;;;18.90;99.90;;;;;;5101954;28;20071;-32
2022/08/27 01:57:25;;;;;;;7.60;5.60;;;18.90;99.90;;;;;;5098598;28;20055;-32
2022/08/27 01:59:50;;;;;;;9.98;6.03;;;18.90;99.90;;;;;;5097443;28;20048;-33
2022/08/27 02:02:16;;;;;;;10.85;6.45;;;18.80;99.90;;;;;;5097871;28;20047;-31
2022/08/27 02:04:43;;;;;;;7.65;5.70;;;18.80;99.90;;;;;;5098135;28;20020;-32
2022/08/27 02:07:09;;;;;;;9.48;6.63;;;18.80;99.90;;;;;;5095768;28;20056;-33
2022/08/27 02:09:35;;;;;;;8.50;6.03;;;18.90;99.90;;;;;;5098979;28;20435;-33
2022/08/27 02:12:01;;;;;;;10.75;6.40;;;18.90;99.90;;;;;;5076936;28;20020;-34
2022/08/27 02:14:27;;;;;;;8.23;6.22;;;18.80;99.90;;;;;;5100243;28;20089;-31
2022/08/27 02:16:53;;;;;;;10.13;5.95;;;18.70;99.90;;;;;;5100238;28;20030;-32
2022/08/27 02:19:20;;;;;;;7.63;6.07;;;18.80;99.90;;;;;;5099766;28;20048;-33
2022/08/27 02:21:46;;;;;;;7.97;5.88;;;18.80;99.90;;;;;;5099558;28;20537;-33
2022/08/27 02:24:13;;;;;;;8.23;5.80;;;18.80;99.90;;;;;;5091744;28;20476;-34
2022/08/27 02:26:39;;;;;;;9.30;6.28;;;18.80;99.90;;;;;;5101844;28;20036;-31
2022/08/27 02:29:05;;;;;;;11.25;5.72;;;18.80;99.90;;;;;;5099607;28;20484;-34
2022/08/27 02:31:31;;;;;;;10.20;5.68;;;18.90;99.90;;;;;;5100227;28;20033;-39
2022/08/27 02:33:56;;;;;;;7.85;5.53;;;18.80;99.90;;;;;;5099409;28;20028;-32
2022/08/27 02:36:23;;;;;;;10.40;5.72;;;18.90;99.90;;;;;;5100313;28;20042;-32
2022/08/27 02:38:49;;;;;;;7.72;5.32;;;18.90;99.90;;;;;;5094522;28;20032;-34
2022/08/27 02:41:15;;;;;;;6.38;4.97;;;18.90;99.90;;;;;;5096008;28;20098;-31
2022/08/27 02:43:42;;;;;;;7.57;5.38;;;18.80;99.90;;;;;;5098710;28;20040;-31
2022/08/27 02:46:09;;;;;;;7.20;4.65;;;18.60;99.90;;;;;;5098505;28;20028;-31
2022/08/27 02:48:36;;;;;;;6.32;4.22;;;18.50;99.90;;;;;;5095952;28;20047;-32
2022/08/27 02:51:04;;;;;;;5.72;4.10;;;18.60;99.90;;;;;;5091124;28;20049;-33
2022/08/27 02:53:29;;;;;;;4.75;4.03;;;18.50;99.90;;;;;;5097306;28;20381;-32
2022/08/27 02:55:55;;;;;;;4.32;3.92;;;18.60;99.90;;;;;;5091146;28;20044;-34
2022/08/27 02:58:20;;;;;;;4.32;3.92;;;18.60;99.90;;;;;;5099346;28;20032;-31
2022/08/27 03:00:46;;;;;;;7.55;4.10;;;18.60;99.90;;;;;;5096512;28;20542;-35
2022/08/27 03:03:12;;;;;;;4.60;3.70;;;18.60;99.90;;;;;;5102910;28;20020;-35
2022/08/27 03:05:38;;;;;;;4.75;3.50;;;18.70;99.90;;;;;;5101719;28;20051;-31
2022/08/27 03:08:05;;;;;;;5.25;3.65;;;18.60;99.90;;;;;;5105016;28;20028;-32
2022/08/27 03:10:31;;;;;;;6.00;3.97;;;18.60;99.90;;;;;;5101792;28;20020;-33
2022/08/27 03:12:57;;;;;;;4.20;3.15;;;18.60;99.90;;;;;;5099442;28;20024;-33
2022/08/27 03:15:23;;;;;;;4.70;3.60;;;18.60;99.90;;;;;;5102492;28;20038;-30
2022/08/27 03:20:37;;;;;;;5.30;3.45;;;18.70;99.90;;;;;;5099658;28;20047;-37
2022/08/27 03:23:02;;;;;;;4.30;3.60;;;18.60;99.90;;;;;;5102149;28;20491;-32
2022/08/27 03:25:28;;;;;;;3.97;3.58;;;18.70;99.90;;;;;;5104358;28;20040;-31
2022/08/27 03:27:54;;;;;;;4.78;3.60;;;18.70;99.90;;;;;;5103051;28;20020;-31
2022/08/27 03:30:21;;;;;;;4.43;3.45;;;18.70;99.90;;;;;;5099510;28;20054;-31
2022/08/27 03:32:47;;;;;;;5.47;4.28;;;18.70;99.90;;;;;;5097034;28;20643;-31
2022/08/27 03:35:13;;;;;;;5.50;3.67;;;18.60;99.90;;;;;;5100003;28;20055;-31
2022/08/27 03:37:39;;;;;;;6.22;3.95;;;18.60;99.90;;;;;;5100843;28;20028;-31
2022/08/27 03:40:06;;;;;;;5.80;4.18;;;18.60;99.90;;;;;;5094922;28;20153;-31
2022/08/27 03:42:34;;;;;;;4.18;3.78;;;18.60;99.90;;;;;;5100689;28;20027;-31
2022/08/27 03:45:00;;;;;;;4.28;3.83;;;18.50;99.90;;;;;;5101177;28;20061;-33
2022/08/27 03:47:25;;;;;;;5.13;3.72;;;18.50;99.90;;;;;;5083451;28;20028;-34
2022/08/27 03:49:51;;;;;;;4.47;3.72;;;18.50;99.90;;;;;;5095443;28;20056;-31
2022/08/27 03:52:18;;;;;;;4.72;3.55;;;18.40;99.90;;;;;;5097551;28;20032;-31
2022/08/27 03:54:44;;;;;;;5.28;4.68;;;18.40;99.90;;;;;;5096287;28;20080;-31
2022/08/27 03:57:10;;;;;;;4.47;3.70;;;18.40;99.90;;;;;;5094313;28;20058;-32
2022/08/27 03:59:36;;;;;;;5.45;4.05;;;18.40;99.90;;;;;;5102701;28;20091;-31
2022/08/27 04:02:03;;;;;;;5.85;4.28;;;18.50;99.90;;;;;;5097575;28;20420;-36
2022/08/27 04:04:29;;;;;;;5.28;4.18;;;18.40;99.90;;;;;;5097477;28;20028;-31
2022/08/27 04:06:56;;;;;;;5.85;4.30;;;18.40;99.90;;;;;;5093565;28;20467;-31
2022/08/27 04:09:22;;;;;;;5.28;4.20;;;18.40;99.90;;;;;;5096099;28;20024;-30
2022/08/27 04:11:47;;;;;;;5.15;4.50;;;18.40;99.90;;;;;;5096764;28;20118;-31
2022/08/27 04:14:13;;;;;;;6.15;4.35;;;18.40;99.90;;;;;;5097703;28;20039;-31
2022/08/27 04:16:39;;;;;;;5.22;4.70;;;18.40;99.90;;;;;;5102236;28;20044;-32
2022/08/27 04:19:05;;;;;;;6.57;4.53;;;18.40;99.90;;;;;;5102629;28;20441;-33
2022/08/27 04:21:32;;;;;;;4.50;3.92;;;18.40;99.90;;;;;;5095662;28;20051;-31
2022/08/27 04:23:59;;;;;;;4.47;3.70;;;18.40;99.90;;;;;;5102982;28;20031;-31
2022/08/27 04:26:25;;;;;;;5.00;4.50;;;18.30;99.90;;;;;;5098347;28;20035;-32
2022/08/27 04:28:51;;;;;;;4.57;3.55;;;18.30;99.90;;;;;;5100309;28;20030;-32
2022/08/27 04:31:17;;;;;;;6.30;4.35;;;18.40;99.90;;;;;;5091827;28;20119;-34
2022/08/27 04:33:43;;;;;;;5.35;4.50;;;18.30;99.90;;;;;;5095695;28;20020;-32
2022/08/27 04:36:10;;;;;;;6.43;4.43;;;18.30;99.90;;;;;;5102622;28;20037;-31
2022/08/27 04:38:36;;;;;;;4.85;4.35;;;18.30;99.90;;;;;;5097080;28;20024;-32
2022/08/27 04:41:18;;;;;;;5.53;4.63;;;18.40;99.90;;;;;;5099244;28;20032;-31
2022/08/27 04:43:49;;;;;;;7.63;4.75;;;18.40;99.90;;;;;;5094182;28;20048;-30
2022/08/27 04:46:19;;;;;;;6.28;4.35;;;18.40;99.90;;;;;;5098080;28;20086;-32
2022/08/27 04:48:45;;;;;;;4.88;4.13;;;18.50;99.90;;;;;;5095386;28;20028;-33
2022/08/27 04:51:11;;;;;;;5.30;4.43;;;18.50;99.90;;;;;;5095989;28;20055;-31
2022/08/27 04:53:36;;;;;;;7.05;4.78;;;18.50;99.90;;;;;;5096984;28;20055;-34
2022/08/27 04:56:03;;;;;;;8.15;5.22;;;18.60;99.90;;;;;;5101274;28;20032;-31
2022/08/27 04:58:28;;;;;;;6.18;4.68;;;18.50;99.90;;;;;;5098691;28;20029;-31
2022/08/27 05:00:58;;;;;;;6.15;5.10;;;18.50;99.90;;;;;;5082982;28;20054;-33
2022/08/27 05:03:25;;;;;;;7.13;4.88;;;18.50;99.90;;;;;;5101065;28;20566;-31
2022/08/27 05:05:52;;;;;;;5.93;4.28;;;18.60;99.90;;;;;;5099359;28;20028;-31
2022/08/27 05:08:18;;;;;;;5.77;4.47;;;18.50;99.90;;;;;;5097042;28;20425;-31
2022/08/27 05:10:46;;;;;;;5.30;3.80;;;18.60;99.90;;;;;;5101849;28;20134;-32
2022/08/27 05:13:12;;;;;;;5.97;4.82;;;18.60;99.90;;;;;;5100776;28;20058;-34
2022/08/27 05:15:39;;;;;;;6.72;4.95;;;18.60;99.90;;;;;;5103021;28;20061;-32
2022/08/27 05:18:06;;;;;;;6.15;5.05;;;18.60;99.90;;;;;;5097066;28;20043;-32
2022/08/27 05:20:33;;;;;;;9.10;5.03;;;18.70;99.90;;;;;;5101433;28;20085;-31
2022/08/27 05:22:59;;;;;;;6.53;4.82;;;18.60;99.90;;;;;;5096040;28;20032;-32
2022/08/27 05:25:25;;;;;;;6.43;4.82;;;18.70;99.90;;;;;;5102385;28;20043;-31
2022/08/27 05:27:51;;;;;;;5.75;4.53;;;18.70;99.90;;;;;;5102578;28;20055;-33
2022/08/27 05:30:18;;;;;;;7.65;5.30;;;18.80;99.90;;;;;;5103555;28;20040;-31
2022/08/27 05:32:43;;;;;;;7.57;5.38;;;18.80;99.90;;;;;;5100119;28;20046;-31
2022/08/27 05:35:09;;;;;;;7.63;5.20;;;18.80;99.90;;;;;;5097535;28;20036;-33
2022/08/27 05:37:35;;;;;;;7.53;5.50;;;18.80;99.90;;;;;;5100171;28;20139;-31
2022/08/27 05:40:05;;;;;;;6.68;5.13;;;18.80;99.90;;;;;;5103590;28;20484;-32
2022/08/27 05:42:31;;;;;;;7.88;5.50;;;18.80;99.90;;;;;;5100439;28;20034;-32
2022/08/27 05:44:57;;;;;;;7.25;5.32;;;18.80;99.90;;;;;;5095491;28;20028;-34
2022/08/27 05:47:23;;;;;;;7.70;5.25;;;18.80;99.90;;;;;;5095401;28;20024;-31
2022/08/27 05:49:53;;;;;;;7.70;5.63;;;18.70;99.90;;;;;;5102397;28;20120;-32
2022/08/27 05:52:19;;;;;;;6.18;4.90;;;18.70;99.90;;;;;;5094289;28;20039;-36
2022/08/27 05:54:44;;;;;;;8.93;5.75;;;18.70;99.90;;;;;;5099928;28;20028;-31
2022/08/27 05:57:10;;;;;;;8.38;5.88;;;18.80;99.90;;;;;;5099903;28;20039;-31
2022/08/27 06:02:20;;;;;;;8.50;6.10;;;18.80;99.90;;;;;;5094102;28;20039;-32
2022/08/27 06:04:46;;;;;;;6.68;5.72;;;18.60;99.90;;;;;;5102305;28;20024;-35
2022/08/27 06:07:12;;;;;;;6.93;5.97;;;18.60;99.90;;;;;;5099101;28;20028;-36
2022/08/27 06:09:38;;;;;;;7.82;5.57;;;18.60;99.90;;;;;;5097934;28;20032;-35
2022/08/27 06:12:05;;;;;;;7.38;5.97;;;18.60;99.90;;;;;;5097842;28;20047;-31
2022/08/27 06:14:30;;;;;;;6.97;5.95;;;18.60;99.90;;;;;;5101356;28;20028;-33
2022/08/27 06:16:59;;;;;;;7.63;5.85;;;18.70;99.90;;;;;;5098003;28;20036;-34
2022/08/27 06:19:25;;;;;;;7.82;6.35;;;18.70;99.90;;;;;;5096879;28;20133;-31
2022/08/27 06:21:51;;;;;;;7.65;5.70;;;18.60;99.90;;;;;;5095252;28;20020;-32
2022/08/27 06:24:17;;;;;;;8.68;6.32;;;18.70;99.90;;;;;;5094235;28;20024;-33
2022/08/27 06:26:43;;;;;;;7.88;5.70;;;18.70;99.90;;;;;;5098590;28;20065;-31
2022/08/27 06:29:10;;;;;;;8.82;5.88;;;18.70;99.90;;;;;;5100598;28;20443;-35
2022/08/27 06:31:37;;;;;;;10.40;6.40;;;18.70;99.90;;;;;;5095463;28;20078;-34
2022/08/27 06:34:05;;;;;;;7.32;6.22;;;18.80;99.90;;;;;;5097462;28;20028;-33
2022/08/27 06:36:33;;;;;;;9.95;6.40;;;18.80;99.90;;;;;;5101978;28;20024;-32
2022/08/27 06:38:58;;;;;;;10.02;6.65;;;18.90;99.90;;;;;;5102682;28;20397;-31
2022/08/27 06:41:26;;;;;;;8.38;5.78;;;18.90;99.90;;;;;;5072737;28;20037;-33
2022/08/27 06:43:53;;;;;;;8.63;6.18;;;18.90;99.90;;;;;;5094284;28;20377;-32
2022/08/27 06:46:22;;;;;;;8.73;6.20;;;18.80;99.90;;;;;;5102475;28;20040;-31
2022/08/27 06:48:50;;;;;;;8.35;5.95;;;18.80;99.90;;;;;;5099014;28;20028;-33
2022/08/27 06:51:19;;;;;;;7.93;6.15;;;18.80;99.90;;;;;;5101946;28;20043;-34
2022/08/27 06:53:46;;;;;;;7.22;5.53;;;18.70;99.90;;;;;;5100844;28;20120;-32
2022/08/27 06:56:14;;;;;;;7.35;5.22;;;18.80;99.90;;;;;;5093652;28;20066;-33
2022/08/27 06:58:41;;;;;;;7.35;5.47;;;18.80;99.90;;;;;;5098134;28;20032;-33
2022/08/27 07:01:15;;;;;;;7.88;5.65;;;18.80;99.90;;;;;;5101052;28;20044;-31
2022/08/27 07:03:42;;;;;;;6.78;5.30;;;18.90;99.90;;;;;;5099538;28;20020;-31
2022/08/27 07:06:10;;;;;;;6.18;4.93;;;18.90;99.90;;;;;;5083238;28;20119;-33
2022/08/27 07:08:36;;;;;;;6.20;5.30;;;18.90;99.90;;;;;;5101262;28;20028;-33
2022/08/27 07:11:02;;;;;;;7.15;5.80;;;19.00;99.90;;;;;;5098817;28;20067;-34
2022/08/27 07:13:28;;;;;;;7.20;5.68;;;19.10;99.90;;;;;;5098868;28;20032;-35
2022/08/27 07:15:55;;;;;;;8.20;5.68;;;19.10;99.90;;;;;;5095198;28;20054;-36
2022/08/27 07:18:21;;;;;;;7.88;6.13;;;19.10;99.90;;;;;;5097641;28;20024;-31
2022/08/27 07:20:47;;;;;;;7.47;5.78;;;19.10;99.90;;;;;;5098314;28;20096;-32
2022/08/27 07:23:13;;;;;;;8.38;6.25;;;19.20;99.90;;;;;;5093753;28;20043;-32
2022/08/27 07:25:40;;;;;;;7.38;5.63;;;19.10;99.90;;;;;;5099492;28;20020;-33
2022/08/27 07:28:06;;;;;;;8.75;6.22;;;19.10;99.90;;;;;;5099667;28;20028;-31
2022/08/27 07:30:32;;;;;;;7.35;5.95;;;19.10;99.90;;;;;;5096025;28;20058;-31
2022/08/27 07:32:58;;;;;;;8.23;5.78;;;19.20;99.90;;;;;;5099659;28;20039;-33
2022/08/27 07:35:23;;;;;;;8.93;6.30;;;19.30;99.90;;;;;;5101999;28;20482;-31
2022/08/27 07:37:49;;;;;;;8.77;5.63;;;19.30;99.90;;;;;;5083798;28;20039;-35
2022/08/27 07:40:15;;;;;;;9.32;6.22;;;19.30;99.90;;;;;;5095108;28;20032;-31
2022/08/27 07:45:27;;;;;;;8.88;6.18;;;19.20;99.90;;;;;;5101785;28;20092;-31
2022/08/27 07:47:54;;;;;;;10.02;6.35;;;19.30;99.90;;;;;;5101402;28;20038;-32
2022/08/27 07:50:20;;;;;;;7.68;6.10;;;19.30;99.90;;;;;;5098710;28;20032;-32
2022/08/27 07:52:46;;;;;;;10.30;5.88;;;19.40;99.90;;;;;;5105266;28;20035;-35
2022/08/27 07:55:13;;;;;;;10.32;6.10;;;19.40;99.90;;;;;;5085432;28;20039;-31
2022/08/27 07:57:39;;;;;;;8.88;6.32;;;19.40;99.90;;;;;;5105389;28;20031;-31
2022/08/27 08:00:09;;;;;;;8.55;6.20;;;19.40;99.90;;;;;;5104547;28;20032;-34
2022/08/27 08:02:35;;;;;;;8.77;5.78;;;19.50;99.90;;;;;;5105912;28;20047;-31
2022/08/27 08:05:02;;;;;;;9.40;6.00;;;19.50;99.90;;;;;;5104765;28;20028;-32
2022/08/27 08:07:28;;;;;;;9.23;6.35;;;19.50;99.90;;;;;;5102619;28;20035;-33
2022/08/27 08:09:53;;;;;;;9.90;6.60;;;19.60;99.90;;;;;;5102139;28;20024;-33
2022/08/27 08:12:19;;;;;;;9.05;6.50;;;19.30;99.90;;;;;;5084074;28;20058;-33
2022/08/27 08:14:45;;;;;;;8.63;6.85;;;19.30;99.90;;;;;;5103935;28;20024;-33
2022/08/27 08:17:12;;;;;;;12.30;7.55;;;19.20;99.90;;;;;;5085999;28;20111;-31
2022/08/27 08:19:39;;;;;;;10.02;6.88;;;19.30;99.90;;;;;;5101885;28;20508;-34
2022/08/27 08:22:04;;;;;;;10.13;7.38;;;19.20;99.90;;;;;;5099895;28;20426;-31
2022/08/27 08:24:30;;;;;;;9.95;7.10;;;19.40;99.90;;;;;;5099057;28;20122;-32
2022/08/27 08:26:56;;;;;;;11.40;8.40;;;19.50;99.90;;;;;;5103190;28;20061;-31
2022/08/27 08:29:21;;;;;;;13.05;8.13;;;19.50;99.90;;;;;;5100064;28;20099;-31
2022/08/27 08:31:47;;;;;;;9.68;6.90;;;19.50;99.90;;;;;;5104109;28;20158;-33
2022/08/27 08:34:13;;;;;;;12.88;8.35;;;19.50;99.90;;;;;;5095966;28;20058;-32
2022/08/27 08:36:38;;;;;;;10.07;7.63;;;19.60;99.90;;;;;;5105587;28;20036;-34
2022/08/27 08:39:04;;;;;;;12.95;7.95;;;19.60;99.90;;;;;;5104434;28;20023;-31
2022/08/27 08:41:38;;;;;;;10.07;8.18;;;19.60;99.90;;;;;;5103613;28;20028;-32
2022/08/27 08:44:29;;;;;;;12.70;7.82;;;19.60;99.90;;;;;;5101336;28;20481;-33
2022/08/27 08:47:09;;;;;;;10.30;8.20;;;19.60;99.90;;;;;;5101636;28;20024;-32
2022/08/27 08:49:42;;;;;;;11.50;8.13;;;19.70;99.90;;;;;;5099810;28;20162;-31
2022/08/27 08:52:16;;;;;;;10.20;7.32;;;19.80;99.90;;;;;;5097834;28;20545;-32
2022/08/27 08:54:43;;;;;;;11.15;7.55;;;19.80;99.90;;;;;;5105993;28;20024;-32
2022/08/27 08:57:45;;;;;;;10.75;7.80;;;19.80;99.90;;;;;;5105233;28;20077;-33
2022/08/27 09:00:13;;;;;;;10.70;6.70;;;19.80;99.90;;;;;;5098726;28;20385;-33
2022/08/27 09:02:47;;;;;;;9.93;7.95;;;19.90;99.90;;;;;;5104191;28;20036;-32
2022/08/27 09:05:13;;;;;;;10.98;6.57;;;20.00;99.90;;;;;;5103378;28;20031;-32
2022/08/27 09:07:47;;;;;;;10.35;7.03;;;20.20;99.90;;;;;;5105397;28;20032;-32
2022/08/27 09:10:25;;;;;;;13.27;8.02;;;20.20;99.90;;;;;;5104560;28;20028;-35
2022/08/27 09:12:55;;;;;;;11.10;7.80;;;20.00;99.90;;;;;;5103615;28;20040;-32
2022/08/27 09:15:25;;;;;;;15.88;8.63;;;20.10;99.90;;;;;;5097951;28;20096;-31
2022/08/27 09:17:51;;;;;;;10.27;7.20;;;20.10;99.90;;;;;;5102619;28;20020;-31
2022/08/27 09:20:20;;;;;;;10.23;6.95;;;20.00;99.90;;;;;;5101865;28;20075;-31
2022/08/27 09:22:56;;;;;;;10.75;7.65;;;20.10;99.90;;;;;;5098378;28;20082;-34
2022/08/27 09:25:36;;;;;;;12.68;7.88;;;20.20;99.90;;;;;;5102834;28;20023;-31
2022/08/27 09:29:14;;;;;;;10.45;7.25;;;20.20;99.90;;;;;;5079383;28;20029;-34
2022/08/27 09:30:54;;;;;;;12.27;8.00;;;20.10;99.90;;;;;;5103384;28;20488;-33
2022/08/27 09:33:20;;;;;;;10.10;6.93;;;20.20;99.90;;;;;;5100900;28;20032;-32
2022/08/27 09:35:46;;;;;;;12.98;8.50;;;20.40;99.90;;;;;;5105543;28;20024;-35
2022/08/27 09:38:40;;;;;;;10.50;8.13;;;20.40;99.90;;;;;;5101993;28;20088;-31
2022/08/27 09:41:12;;;;;;;12.57;7.63;;;20.60;99.90;;;;;;5100010;28;20056;-32
2022/08/27 09:43:42;;;;;;;11.80;7.28;;;20.90;99.90;;;;;;5103919;28;20020;-31
2022/08/27 09:46:20;;;;;;;10.50;8.45;;;21.00;99.90;;;;;;5102939;28;20038;-32
2022/08/27 09:48:46;;;;;;;11.25;7.53;;;21.00;99.90;;;;;;5093966;28;20024;-33
2022/08/27 09:51:15;;;;;;;12.27;7.03;;;21.10;99.90;;;;;;5077960;28;20032;-32
2022/08/27 09:53:49;;;;;;;11.63;8.07;;;21.30;99.90;;;;;;5102097;28;20023;-30
2022/08/27 09:56:25;;;;;;;9.70;7.30;;;21.40;99.90;;;;;;5102533;28;20035;-30
2022/08/27 09:59:22;;;;;;;10.32;7.53;;;21.00;99.90;;;;;;5098492;28;20036;-31
2022/08/27 10:02:01;;;;;;;15.98;7.45;;;21.00;99.90;;;;;;5086259;28;20055;-35
2022/08/27 10:04:41;;;;;;;10.50;6.55;;;21.20;99.90;;;;;;5103752;28;20014;-31
2022/08/27 10:07:42;;;;;;;10.60;7.32;;;21.30;99.90;;;;;;5099386;28;20028;-34
2022/08/27 10:10:28;;;;;;;12.25;7.28;;;21.40;99.90;;;;;;5100771;28;20055;-33
2022/08/27 10:13:09;;;;;;;10.27;7.10;;;21.50;99.90;;;;;;5083485;28;20030;-32
2022/08/27 10:16:10;;;;;;;10.15;6.43;;;21.30;99.90;;;;;;5098323;28;20020;-33
2022/08/27 10:18:47;;;;;;;7.28;5.70;;;21.40;99.90;;;;;;5076807;28;20336;-35
2022/08/27 10:21:40;;;;;;;9.00;5.82;;;21.60;99.90;;;;;;5092948;28;20042;-33
2022/08/27 10:24:25;;;;;;;8.05;5.45;;;21.90;99.90;;;;;;5086469;28;20039;-31
2022/08/27 10:26:56;;;;;;;6.75;5.07;;;22.10;99.90;;;;;;5096912;28;20085;-31
2022/08/27 10:29:39;;;;;;;7.13;5.80;;;22.50;99.90;;;;;;5098847;28;20024;-31
2022/08/27 10:32:31;;;;;;;8.50;5.63;;;22.70;99.90;;;;;;5100414;28;20036;-33
2022/08/27 10:35:11;;;;;;;7.15;5.05;;;23.00;99.90;;;;;;5090972;28;20551;-33
2022/08/27 10:37:46;;;;;;;10.80;5.82;;;23.10;99.90;;;;;;5100938;28;20032;-32
2022/08/27 10:40:20;;;;;;;6.05;4.90;;;22.40;99.90;;;;;;5088736;28;20040;-31
2022/08/27 10:43:01;;;;;;;6.55;5.10;;;22.60;99.90;;;;;;5101686;28;20012;-32
2022/08/27 10:45:26;;;;;;;8.95;5.10;;;23.00;99.90;;;;;;5093299;28;20034;-31
2022/08/27 10:48:08;;;;;;;5.75;4.43;;;23.40;99.90;;;;;;5100309;28;20125;-31
2022/08/27 10:51:03;;;;;;;6.88;4.63;;;23.10;99.50;;;;;;5094206;28;20033;-30
2022/08/27 10:53:59;;;;;;;6.15;4.50;;;22.40;98.30;;;;;;5099304;28;20036;-35
2022/08/27 10:56:52;;;;;;;7.22;4.97;;;22.90;99.90;;;;;;5096870;28;20028;-31
2022/08/27 10:59:21;;;;;;;6.47;4.38;;;23.10;96.20;;;;;;5097519;28;20087;-32
2022/08/27 11:02:01;;;;;;;6.45;4.60;;;23.50;94.50;;;;;;5101556;28;20088;-30
2022/08/27 11:04:32;;;;;;;4.55;3.63;;;23.70;96.00;;;;;;5097262;28;20384;-31
2022/08/27 11:07:41;;;;;;;6.28;4.63;;;24.10;95.70;;;;;;5100083;28;20747;-30
2022/08/27 11:10:33;;;;;;;5.63;4.32;;;24.30;94.70;;;;;;5054552;28;20131;-34
2022/08/27 11:13:04;;;;;;;5.90;4.03;;;24.50;94.10;;;;;;5092127;28;20075;-30
2022/08/27 11:15:34;;;;;;;5.30;4.32;;;24.60;93.60;;;;;;5075680;28;20107;-31
2022/08/27 11:18:19;;;;;;;7.68;4.63;;;24.40;95.70;;;;;;5101535;28;20051;-33
2022/08/27 11:20:54;;;;;;;5.78;4.20;;;24.00;93.70;;;;;;5100430;28;20096;-32
2022/08/27 11:23:31;;;;;;;12.45;8.65;;;24.00;95.80;;;;;;5101755;28;20027;-31
2022/08/27 11:26:03;;;;;;;7.83;6.10;;;24.30;94.30;;;;;;5085975;28;20081;-32
2022/08/27 11:28:30;;;;;;;62.33;24.33;;;24.50;93.30;;;;;;5104699;28;20038;-32
2022/08/27 11:31:35;;;;;;;41.78;20.70;;;24.30;90.80;;;;;;5097311;28;20054;-31
2022/08/27 11:34:04;;;;;;;7.90;5.47;;;23.80;91.80;;;;;;5086753;28;20043;-32
2022/08/27 11:37:01;;;;;;;10.95;4.88;;;23.90;93.50;;;;;;5102077;28;20537;-34
2022/08/27 11:40:14;;;;;;;8.52;5.20;;;24.40;91.40;;;;;;5104728;28;20027;-31
2022/08/27 11:42:40;;;;;;;5.28;4.13;;;24.20;90.70;;;;;;5099603;28;20023;-32
2022/08/27 11:45:09;;;;;;;4.78;3.85;;;24.40;92.50;;;;;;5095167;28;20071;-33
2022/08/27 11:47:35;;;;;;;8.18;4.68;;;24.70;91.00;;;;;;5099633;28;20031;-32
2022/08/27 11:50:07;;;;;;;5.22;4.18;;;24.50;88.50;;;;;;5096898;28;20452;-30
2022/08/27 11:52:52;;;;;;;7.28;4.63;;;24.10;88.40;;;;;;5100104;28;20081;-31
2022/08/27 11:55:20;;;;;;;15.10;6.28;;;24.10;93.20;;;;;;5102586;28;20056;-32
2022/08/27 11:57:49;;;;;;;8.10;4.30;;;24.20;90.50;;;;;;5100028;28;20077;-31
2022/08/27 12:00:27;;;;;;;5.75;4.82;;;23.90;89.60;;;;;;5098608;28;20020;-31
2022/08/27 12:03:00;;;;;;;11.75;4.75;;;24.10;91.50;;;;;;5099994;28;20442;-31
2022/08/27 12:05:35;;;;;;;5.13;3.78;;;24.20;90.50;;;;;;5103197;28;20020;-31
2022/08/27 12:08:14;;;;;;;6.05;4.82;;;24.30;93.10;;;;;;5098807;28;20032;-34
2022/08/27 12:11:17;;;;;;;6.10;4.82;;;24.20;92.90;;;;;;5093742;28;20024;-32
2022/08/27 12:14:11;;;;;;;5.70;4.97;;;24.10;93.50;;;;;;5098274;28;20104;-33
2022/08/27 12:17:00;;;;;;;7.35;4.97;;;24.00;93.80;;;;;;5102300;28;20049;-31
2022/08/27 12:19:36;;;;;;;8.90;5.65;;;23.80;94.60;;;;;;5087607;28;20036;-33
2022/08/27 12:23:38;;;;;;;8.95;6.25;;;23.70;95.70;;;;;;5098359;28;20107;-33
2022/08/27 12:25:25;;;;;;;8.55;5.97;;;23.60;95.60;;;;;;5099343;28;20040;-33
2022/08/27 12:28:02;;;;;;;7.43;5.75;;;23.30;96.30;;;;;;5102131;28;20036;-33
2022/08/27 12:30:35;;;;;;;;;;;23.30;98.80;;;;;;5097986;28;20289;-31
2022/08/27 12:33:13;;;;;;;6.05;5.28;;;23.20;98.90;;;;;;5098451;28;19915;-33
2022/08/27 12:35:49;;;;;;;7.38;5.60;;;23.10;98.90;;;;;;5095254;28;20062;-30
2022/08/27 12:38:33;;;;;;;7.20;4.90;;;22.90;98.30;;;;;;5100265;28;20015;-33
2022/08/27 12:41:04;;;;;;;8.82;5.40;;;22.60;98.50;;;;;;5102821;28;20039;-32
2022/08/27 12:43:32;;;;;;;8.35;6.25;;;22.30;99.50;;;;;;5099859;28;20012;-32
2022/08/27 12:46:06;;;;;;;8.57;5.68;;;22.10;99.90;;;;;;5104631;28;20536;-31
2022/08/27 12:48:56;;;;;;;8.13;5.60;;;21.90;99.90;;;;;;5101430;28;20024;-33
2022/08/27 12:51:32;;;;;;;6.18;4.50;;;21.80;99.90;;;;;;5096474;28;20028;-31
2022/08/27 12:54:27;;;;;;;4.90;4.05;;;21.50;99.90;;;;;;5080541;28;20133;-33
2022/08/27 12:57:05;;;;;;;5.72;4.50;;;21.20;99.90;;;;;;5101184;28;20046;-32
2022/08/27 12:59:45;;;;;;;5.00;4.13;;;21.20;99.90;;;;;;5100136;28;20041;-36
2022/08/27 13:02:43;;;;;;;5.07;4.32;;;21.10;99.90;;;;;;5092130;28;20081;-31
2022/08/27 13:05:10;;;;;;;;;;;21.00;99.90;;;;;;5031136;28;20066;-33
2022/08/27 13:07:43;;;;;;;5.97;4.00;;;21.10;99.90;;;;;;5098017;28;20572;-32
2022/08/27 13:10:28;;;;;;;6.30;4.13;;;21.00;99.90;;;;;;5103596;28;20040;-33
2022/08/27 13:13:21;;;;;;;7.18;4.13;;;21.10;99.90;;;;;;5096553;28;20043;-34